map of TEZ home
TEZ - Airport
Location
City:  Tezpur, Assam, India
ICAO:VETZ
IATA:TEZ

Details
Type:Airport (Aerodrome, Airfield)
Use:Military
Latitude:26°42'33"N (26.709139)
Longitude:92°47'05"E (92.784739)
Datum:WGS 1984
Elevation:240 ft (73 m)
Variation:0.39°W (WMM2015v2 magnetic declination)
-0.03° annual change
Runways:1
Longest:9010 × 150 ft (2746 × 45.5 m), paved

Time
Time Zone:UTC+5:30
Local Time:

Weather
TAF:VETZ 040930Z 0412/0424 05005KT 6000 FEW090 SCT250
BECMG 0416/0418 VRB02KT 4000 BR SCT250
BECMG 0420/0422 2000 BR SCT090

Related Locations
Nearby:
Farthest:SCFX: 12005 mi / 19320 km
Isla San Félix, Desventuradas Islands, VS, CL

Find:

   beyond  
but within

Other Information
Maps:
NOTAMs:
Links:
Sources:

  
  • flag of India
  

Sectional Chart

Flight Planning
at skyvector.com

Satellite Image

Google Maps Satellite view

 

Copyright © 2004-2019 Karl L. Swartz. All rights reserved.
The Great Circle Mapper name and logo are trademarks of the Great Circle Mapper.
All other trademarks mentioned herein belong to their respective owners.
Please see credits for attibutions and further copyright information.

  Follow gcmap on Facebook Follow gcmap on Twitter GCmap on LinkedIn

hCard Microformat

Geo Microformat